createdAt,value
2017-07-01T00:00:54.657Z,29.97
2017-07-01T00:03:21.293Z,30.70
2017-07-01T00:05:47.921Z,31.13
2017-07-01T00:08:14.567Z,27.80
2017-07-01T00:10:41.196Z,29.53
2017-07-01T00:13:07.820Z,33.20
2017-07-01T00:15:34.476Z,35.20
2017-07-01T00:18:01.084Z,31.33
2017-07-01T00:20:27.729Z,32.17
2017-07-01T00:22:54.369Z,31.17
2017-07-01T00:25:21.009Z,26.50
2017-07-01T00:27:47.655Z,27.00
2017-07-01T00:30:14.283Z,27.00
2017-07-01T00:32:40.927Z,28.87
2017-07-01T00:35:07.556Z,33.30
2017-07-01T00:37:34.196Z,30.07
2017-07-01T00:40:00.840Z,35.30
2017-07-01T00:42:27.462Z,31.07
2017-07-01T00:44:54.101Z,27.60
2017-07-01T00:47:20.741Z,29.30
2017-07-01T00:49:47.397Z,32.87
2017-07-01T00:52:14.051Z,31.57
2017-07-01T00:54:40.694Z,26.60
2017-07-01T00:57:07.348Z,29.03
2017-07-01T00:59:34.003Z,25.83
2017-07-01T01:02:00.639Z,27.53
2017-07-01T01:04:27.279Z,33.50
2017-07-01T01:06:53.940Z,35.43
2017-07-01T01:09:20.564Z,33.40
2017-07-01T01:11:47.199Z,31.27
2017-07-01T01:14:13.819Z,31.10
2017-07-01T01:16:40.465Z,34.17
2017-07-01T01:19:07.115Z,30.30
2017-07-01T01:21:33.747Z,30.33
2017-07-01T01:24:00.421Z,37.57
2017-07-01T01:26:27.048Z,32.10
2017-07-01T01:28:53.673Z,35.73
2017-07-01T01:31:20.339Z,30.23
2017-07-01T01:33:46.988Z,29.77
2017-07-01T01:36:14.224Z,30.77
2017-07-01T01:38:40.863Z,38.17
2017-07-01T01:41:07.512Z,36.50
2017-07-01T01:43:34.134Z,37.77
2017-07-01T01:46:00.787Z,39.77
2017-07-01T01:48:27.433Z,39.63
2017-07-01T01:50:54.215Z,41.30
2017-07-01T01:53:20.940Z,39.50
2017-07-01T01:55:47.615Z,41.47
2017-07-01T01:58:14.280Z,44.13
2017-07-01T02:00:41.046Z,41.53
2017-07-01T02:03:07.827Z,40.87
2017-07-01T02:05:34.450Z,42.73
2017-07-01T02:08:10.286Z,49.40
2017-07-01T02:10:37.015Z,42.60
2017-07-01T02:13:03.736Z,43.60
2017-07-01T02:15:30.359Z,47.53
2017-07-01T02:18:01.022Z,42.60
2017-07-01T02:20:33.551Z,46.27
2017-07-01T02:23:00.190Z,54.87
2017-07-01T02:25:27.721Z,51.70
2017-07-01T02:27:54.903Z,50.07
2017-07-01T02:30:21.554Z,55.87
2017-07-01T02:32:49.074Z,59.53
2017-07-01T02:35:15.726Z,80.20
2017-07-01T02:37:42.405Z,67.47
2017-07-01T02:40:09.047Z,68.20
2017-07-01T02:42:35.700Z,74.07
2017-07-01T02:45:02.403Z,75.03
2017-07-01T02:47:45.695Z,70.17
2017-07-01T02:50:12.348Z,71.73
2017-07-01T02:52:44.526Z,87.57
2017-07-01T02:55:17.083Z,71.47
2017-07-01T02:57:43.883Z,80.00
2017-07-01T03:00:10.612Z,85.63
2017-07-01T03:02:37.268Z,79.87
2017-07-01T03:05:03.904Z,70.80
2017-07-01T03:07:30.554Z,76.23
2017-07-01T03:09:57.210Z,70.97
2017-07-01T03:12:23.843Z,68.43
2017-07-01T03:14:50.628Z,73.47
2017-07-01T03:17:17.351Z,94.37
2017-07-01T03:19:44.008Z,71.97
2017-07-01T03:22:10.679Z,68.73
2017-07-01T03:24:47.220Z,76.33
2017-07-01T03:27:13.879Z,81.80
2017-07-01T03:29:40.500Z,78.50
2017-07-01T03:32:07.306Z,76.27
2017-07-01T03:34:33.946Z,81.93
2017-07-01T03:37:04.626Z,84.33
2017-07-01T03:39:37.268Z,94.87
2017-07-01T03:42:19.719Z,85.33
2017-07-01T03:44:50.999Z,96.37
2017-07-01T03:47:17.611Z,82.13
2017-07-01T03:49:45.018Z,84.63
2017-07-01T03:52:11.652Z,73.70
2017-07-01T03:54:41.166Z,97.70
2017-07-01T03:57:07.824Z,81.17
2017-07-01T03:59:34.454Z,95.37
2017-07-01T04:02:01.098Z,111.70
2017-07-01T04:04:27.738Z,97.17
2017-07-01T04:06:54.376Z,98.80
2017-07-01T04:09:21.015Z,79.40
2017-07-01T04:11:51.470Z,94.30
2017-07-01T04:14:18.119Z,98.30
2017-07-01T04:16:44.752Z,93.07
2017-07-01T04:19:11.377Z,86.17
2017-07-01T04:21:38.027Z,96.27
2017-07-01T04:24:04.671Z,90.07
2017-07-01T04:26:31.327Z,86.27
2017-07-01T04:28:57.951Z,90.43
2017-07-01T04:31:24.594Z,83.80
2017-07-01T04:33:51.244Z,96.13
2017-07-01T04:36:17.872Z,78.07
2017-07-01T04:38:54.458Z,97.93
2017-07-01T04:41:25.843Z,78.70
2017-07-01T04:43:58.463Z,94.43
2017-07-01T04:46:25.087Z,106.70
2017-07-01T04:48:57.641Z,98.03
2017-07-01T04:51:42.040Z,97.17
2017-07-01T04:54:15.327Z,127.17
2017-07-01T04:56:41.973Z,127.63
2017-07-01T04:59:08.597Z,132.47
2017-07-01T05:01:41.946Z,136.87
2017-07-01T05:04:15.460Z,135.17
2017-07-01T05:06:44.997Z,160.00
2017-07-01T05:09:11.651Z,131.47
2017-07-01T05:11:38.296Z,132.73
2017-07-01T05:14:09.463Z,171.03
2017-07-01T05:16:42.858Z,129.83
2017-07-01T05:19:11.934Z,139.90
2017-07-01T05:21:41.072Z,128.23
2017-07-01T05:24:09.960Z,103.70
2017-07-01T05:26:39.490Z,147.00
2017-07-01T05:29:07.710Z,130.17
2017-07-01T05:31:35.784Z,123.23
2017-07-01T05:34:20.944Z,136.13
2017-07-01T05:36:49.944Z,117.00
2017-07-01T05:39:21.298Z,136.67
2017-07-01T05:41:57.530Z,92.67
2017-07-01T05:44:31.571Z,99.23
2017-07-01T05:47:02.292Z,99.47
2017-07-01T05:49:30.847Z,89.27
2017-07-01T05:51:59.569Z,79.83
2017-07-01T05:54:30.458Z,95.50
2017-07-01T05:56:58.436Z,86.03
2017-07-01T05:59:31.994Z,83.17
2017-07-01T06:01:59.523Z,84.43
2017-07-01T06:04:30.607Z,81.57
2017-07-01T06:06:58.982Z,59.77
2017-07-01T06:09:48.303Z,64.90
2017-07-01T06:12:22.071Z,57.63
2017-07-01T06:14:50.902Z,54.10
2017-07-01T06:17:37.226Z,39.83
2017-07-01T06:20:04.790Z,37.80
2017-07-01T06:22:50.959Z,33.33
2017-07-01T06:25:19.526Z,32.57
2017-07-01T06:27:55.246Z,28.17
2017-07-01T06:30:27.248Z,22.83
2017-07-01T06:33:05.259Z,19.37
2017-07-01T06:35:33.704Z,23.30
2017-07-01T06:38:16.740Z,22.97
2017-07-01T06:40:55.343Z,20.63
2017-07-01T06:43:22.810Z,19.40
2017-07-01T06:45:50.414Z,18.67
2017-07-01T06:48:19.211Z,13.90
2017-07-01T06:50:47.359Z,14.27
2017-07-01T06:53:16.086Z,15.93
2017-07-01T06:55:44.420Z,17.00
2017-07-01T06:58:12.921Z,17.00
2017-07-01T07:00:44.286Z,16.83
2017-07-01T07:03:13.035Z,13.80
2017-07-01T07:05:41.964Z,14.20
2017-07-01T07:08:11.324Z,15.10
2017-07-01T07:10:41.463Z,11.87
2017-07-01T07:13:10.317Z,12.57
2017-07-01T07:15:39.214Z,12.23
2017-07-01T07:18:07.657Z,16.00
2017-07-01T07:20:37.076Z,11.50
2017-07-01T07:23:04.653Z,11.83
2017-07-01T07:25:33.570Z,11.53
2017-07-01T07:28:02.042Z,11.40
2017-07-01T07:30:29.178Z,10.87
2017-07-01T07:32:56.330Z,10.60
2017-07-01T07:35:23.008Z,11.27
2017-07-01T07:37:51.503Z,11.60
2017-07-01T07:40:18.496Z,10.43
2017-07-01T07:42:45.528Z,10.63
2017-07-01T07:45:12.151Z,10.73
2017-07-01T07:47:38.819Z,11.70
2017-07-01T07:50:05.443Z,9.57
2017-07-01T07:52:34.253Z,11.70
2017-07-01T07:55:02.211Z,10.67
2017-07-01T07:57:29.153Z,7.23
2017-07-01T07:59:55.773Z,7.77
2017-07-01T08:02:22.418Z,9.07
2017-07-01T08:04:49.056Z,6.97
2017-07-01T08:07:18.352Z,7.30
2017-07-01T08:09:46.831Z,6.47
2017-07-01T08:12:13.456Z,6.90
2017-07-01T08:14:41.975Z,5.60
2017-07-01T08:17:10.827Z,5.10
2017-07-01T08:19:39.575Z,5.67
2017-07-01T08:22:08.008Z,5.53
2017-07-01T08:24:37.139Z,4.00
2017-07-01T08:27:06.032Z,5.00
2017-07-01T08:29:32.960Z,4.70
2017-07-01T08:32:01.708Z,4.43
2017-07-01T08:34:28.978Z,6.50
2017-07-01T08:36:57.286Z,5.67
2017-07-01T08:39:25.575Z,3.87
2017-07-01T08:41:53.938Z,5.33
2017-07-01T08:44:21.816Z,5.30
2017-07-01T08:46:49.310Z,5.07
2017-07-01T08:49:16.808Z,4.70
2017-07-01T08:51:45.221Z,7.90
2017-07-01T08:54:12.572Z,6.47
2017-07-01T08:56:43.460Z,6.60
2017-07-01T08:59:11.889Z,7.10
2017-07-01T09:01:39.294Z,9.23
2017-07-01T09:04:07.740Z,9.23
2017-07-01T09:06:35.064Z,8.57
2017-07-01T09:09:03.245Z,10.40
2017-07-01T09:11:31.628Z,8.77
2017-07-01T09:14:00.261Z,9.10
2017-07-01T09:16:29.780Z,8.87
2017-07-01T09:18:58.428Z,9.47
2017-07-01T09:21:26.049Z,7.60
2017-07-01T09:23:53.761Z,8.00
2017-07-01T09:26:21.727Z,9.40
2017-07-01T09:28:48.817Z,9.27
2017-07-01T09:31:18.035Z,8.80
2017-07-01T09:33:46.274Z,8.20
2017-07-01T09:36:13.768Z,10.40
2017-07-01T09:38:42.074Z,7.60
2017-07-01T09:41:10.159Z,7.97
2017-07-01T09:43:36.780Z,8.13
2017-07-01T09:46:04.842Z,7.13
2017-07-01T09:48:33.349Z,8.33
2017-07-01T09:51:00.337Z,6.50
2017-07-01T09:53:28.054Z,6.87
2017-07-01T09:55:54.739Z,7.40
2017-07-01T09:58:21.371Z,6.43
2017-07-01T10:00:48.089Z,5.87
2017-07-01T10:03:14.712Z,8.70
2017-07-01T10:05:41.391Z,7.70
2017-07-01T10:08:09.951Z,15.27
2017-07-01T10:10:39.915Z,5.53
2017-07-01T10:13:07.965Z,4.47
2017-07-01T10:15:37.378Z,5.50
2017-07-01T10:18:05.468Z,5.60
2017-07-01T10:20:33.077Z,6.27
2017-07-01T10:23:01.580Z,8.07
2017-07-01T10:25:28.233Z,6.03
2017-07-01T10:27:54.864Z,7.40
2017-07-01T10:30:21.509Z,7.30
2017-07-01T10:32:48.123Z,6.80
2017-07-01T10:35:14.776Z,7.73
2017-07-01T10:37:42.073Z,7.93
2017-07-01T10:40:09.474Z,8.23
2017-07-01T10:42:38.710Z,9.17
2017-07-01T10:45:07.418Z,20.37
2017-07-01T10:47:36.160Z,21.83
2017-07-01T10:50:05.135Z,26.27
2017-07-01T10:52:34.920Z,19.77
2017-07-01T10:55:03.260Z,23.87
2017-07-01T11:00:03.544Z,11.83
2017-07-01T11:02:31.916Z,14.50
2017-07-01T11:04:59.920Z,4.60
2017-07-01T11:07:30.628Z,5.80
2017-07-01T11:09:58.706Z,7.37
2017-07-01T11:12:26.240Z,8.40
2017-07-01T11:14:54.901Z,9.77
2017-07-01T11:17:23.249Z,7.00
2017-07-01T11:19:49.862Z,8.23
2017-07-01T11:22:19.259Z,9.00
2017-07-01T11:24:48.967Z,15.20
2017-07-01T11:27:19.494Z,12.50
2017-07-01T11:29:46.133Z,18.50
2017-07-01T11:32:15.451Z,18.90
2017-07-01T11:34:44.220Z,19.57
2017-07-01T11:37:12.706Z,16.80
2017-07-01T11:39:39.995Z,16.90
2017-07-01T11:42:06.620Z,29.30
2017-07-01T11:44:35.903Z,29.73
2017-07-01T11:47:04.894Z,32.23
2017-07-01T11:49:33.091Z,24.70
2017-07-01T11:52:02.008Z,25.43
2017-07-01T11:54:31.421Z,19.90
2017-07-01T11:57:00.065Z,19.73
2017-07-01T11:59:28.237Z,15.90
2017-07-01T12:01:57.940Z,19.93
2017-07-01T12:04:29.568Z,24.53
2017-07-01T12:06:57.733Z,21.07
2017-07-01T12:09:26.590Z,15.00
2017-07-01T12:11:53.950Z,23.97
2017-07-01T12:14:22.907Z,21.27
2017-07-01T12:16:50.999Z,28.57
2017-07-01T12:19:19.375Z,15.13
2017-07-01T12:21:47.954Z,8.70
2017-07-01T12:24:16.866Z,13.50
2017-07-01T12:26:44.794Z,16.53
2017-07-01T12:29:14.664Z,12.43
2017-07-01T12:31:43.603Z,14.50
2017-07-01T12:34:11.355Z,10.83
2017-07-01T12:36:39.088Z,19.00
2017-07-01T12:39:09.380Z,21.17
2017-07-01T12:41:38.855Z,14.40
2017-07-01T12:44:08.411Z,15.00
2017-07-01T12:46:37.400Z,12.40
2017-07-01T12:49:06.643Z,11.10
2017-07-01T12:51:35.575Z,17.40
2017-07-01T12:54:04.836Z,17.23
2017-07-01T12:56:33.142Z,10.30
2017-07-01T12:59:05.222Z,7.23
2017-07-01T13:01:33.840Z,12.20
2017-07-01T13:04:02.318Z,7.83
2017-07-01T13:06:31.382Z,8.90
2017-07-01T13:08:59.449Z,12.93
2017-07-01T13:11:29.088Z,16.10
2017-07-01T13:13:59.738Z,18.97
2017-07-01T13:16:28.479Z,14.60
2017-07-01T13:18:56.879Z,20.20
2017-07-01T13:21:26.184Z,24.40
2017-07-01T13:23:54.691Z,25.13
2017-07-01T13:26:23.033Z,12.07
2017-07-01T13:28:52.039Z,14.37
2017-07-01T13:31:22.507Z,13.40
2017-07-01T13:33:51.756Z,12.17
2017-07-01T13:36:21.329Z,19.13
2017-07-01T13:38:50.550Z,17.00
2017-07-01T13:41:19.134Z,15.80
2017-07-01T13:43:47.148Z,11.40
2017-07-01T13:46:15.217Z,15.20
2017-07-01T13:48:44.769Z,22.60
2017-07-01T13:51:11.754Z,18.97
2017-07-01T13:53:40.715Z,16.30
2017-07-01T13:56:10.527Z,11.80
2017-07-01T13:58:39.203Z,19.20
2017-07-01T14:01:07.978Z,18.83
2017-07-01T14:03:34.609Z,20.27
2017-07-01T14:06:01.262Z,18.00
2017-07-01T14:08:28.775Z,24.93
2017-07-01T14:10:58.549Z,18.00
2017-07-01T14:13:26.843Z,17.50
2017-07-01T14:15:53.527Z,23.20
2017-07-01T14:18:22.366Z,18.23
2017-07-01T14:20:49.012Z,22.00
2017-07-01T14:23:15.647Z,26.13
2017-07-01T14:25:45.746Z,38.70
2017-07-01T14:28:13.295Z,42.67
2017-07-01T14:30:41.565Z,29.00
2017-07-01T14:33:08.221Z,26.13
2017-07-01T14:35:34.839Z,27.67
2017-07-01T14:38:01.507Z,19.77
2017-07-01T14:40:28.164Z,13.70
2017-07-01T14:42:54.816Z,13.17
2017-07-01T14:45:21.483Z,12.03
2017-07-01T14:47:48.136Z,8.20
2017-07-01T14:50:14.779Z,8.90
2017-07-01T14:52:41.427Z,8.93
2017-07-01T14:55:08.068Z,9.43
2017-07-01T14:57:36.587Z,8.40
2017-07-01T15:00:03.202Z,7.50
2017-07-01T15:02:29.998Z,8.93
2017-07-01T15:04:57.342Z,8.63
2017-07-01T15:07:24.057Z,9.63
2017-07-01T15:09:50.728Z,11.97
2017-07-01T15:12:17.336Z,12.23
2017-07-01T15:14:44.873Z,10.00
2017-07-01T15:17:11.518Z,9.30
2017-07-01T15:19:39.646Z,9.70
2017-07-01T15:22:06.903Z,8.87
2017-07-01T15:24:33.519Z,14.60
2017-07-01T15:27:01.432Z,9.30
2017-07-01T15:29:30.381Z,8.97
2017-07-01T15:31:57.046Z,10.03
2017-07-01T15:34:23.700Z,7.83
2017-07-01T15:36:51.189Z,8.50
2017-07-01T15:39:20.363Z,9.30
2017-07-01T15:41:48.330Z,9.17
2017-07-01T15:44:14.952Z,7.97
2017-07-01T15:46:41.626Z,7.53
2017-07-01T15:49:08.308Z,9.07
2017-07-01T15:51:34.943Z,12.20
2017-07-01T15:54:01.601Z,10.43
2017-07-01T15:56:28.221Z,9.17
2017-07-01T15:58:54.882Z,10.53
2017-07-01T16:01:27.596Z,10.20
2017-07-01T16:03:54.842Z,9.53
2017-07-01T16:06:21.464Z,9.43
2017-07-01T16:08:48.115Z,9.70
2017-07-01T16:11:14.732Z,9.57
2017-07-01T16:13:41.380Z,7.20
2017-07-01T16:16:08.016Z,8.40
2017-07-01T16:18:34.641Z,7.90
2017-07-01T16:21:01.297Z,8.90
2017-07-01T16:23:27.917Z,8.90
2017-07-01T16:25:54.576Z,9.53
2017-07-01T16:28:21.196Z,9.73
2017-07-01T16:30:47.839Z,11.23
2017-07-01T16:33:14.487Z,12.27
2017-07-01T16:35:41.151Z,12.23
2017-07-01T16:38:07.802Z,13.40
2017-07-01T16:40:34.456Z,15.60
2017-07-01T16:43:01.082Z,14.00
2017-07-01T16:45:27.765Z,13.20
2017-07-01T16:47:54.434Z,16.60
2017-07-01T16:50:21.176Z,14.57
2017-07-01T16:52:47.821Z,15.70
2017-07-01T16:55:14.470Z,13.27
2017-07-01T16:57:43.941Z,17.77
2017-07-01T17:00:10.594Z,13.10
2017-07-01T17:02:37.247Z,15.00
2017-07-01T17:05:03.909Z,14.27
2017-07-01T17:07:30.552Z,13.43
2017-07-01T17:09:58.130Z,14.00
2017-07-01T17:12:25.949Z,17.47
2017-07-01T17:14:54.821Z,17.13
2017-07-01T17:17:24.198Z,14.63
2017-07-01T17:19:54.171Z,16.17
2017-07-01T17:22:20.807Z,12.53
2017-07-01T17:24:47.459Z,12.47
2017-07-01T17:27:15.128Z,11.87
2017-07-01T17:29:42.287Z,16.07
2017-07-01T17:32:08.922Z,12.57
2017-07-01T17:34:35.600Z,13.63
2017-07-01T17:37:02.267Z,15.03
2017-07-01T17:39:28.915Z,13.87
2017-07-01T17:41:55.577Z,13.63
2017-07-01T17:44:22.196Z,15.20
2017-07-01T17:46:48.838Z,13.73
2017-07-01T17:49:15.492Z,14.33
2017-07-01T17:51:44.058Z,13.30
2017-07-01T17:54:10.946Z,19.40
2017-07-01T17:56:37.598Z,18.57
2017-07-01T17:59:04.254Z,14.43
2017-07-01T18:01:30.903Z,15.80
2017-07-01T18:03:57.548Z,14.20
2017-07-01T18:06:27.156Z,17.90
2017-07-01T18:08:53.871Z,14.67
2017-07-01T18:11:24.312Z,19.53
2017-07-01T18:13:51.467Z,15.63
2017-07-01T18:16:21.151Z,11.07
2017-07-01T18:18:48.638Z,16.70
2017-07-01T18:21:16.742Z,17.60
2017-07-01T18:23:45.564Z,18.10
2017-07-01T18:26:14.276Z,13.73
2017-07-01T18:28:41.688Z,9.93
2017-07-01T18:31:09.257Z,15.87
2017-07-01T18:33:35.919Z,16.70
2017-07-01T18:36:05.725Z,20.13
2017-07-01T18:38:32.369Z,17.43
2017-07-01T18:41:01.276Z,16.10
2017-07-01T18:43:31.576Z,17.53
2017-07-01T18:46:01.263Z,15.73
2017-07-01T18:48:31.617Z,21.80
2017-07-01T18:51:00.512Z,14.93
2017-07-01T18:53:28.830Z,19.20
2017-07-01T18:55:57.056Z,17.57
2017-07-01T18:58:23.758Z,17.20
2017-07-01T19:00:54.567Z,19.57
2017-07-01T19:03:24.590Z,14.70
2017-07-01T19:05:55.562Z,19.50
2017-07-01T19:08:24.202Z,17.40
2017-07-01T19:10:52.887Z,24.07
2017-07-01T19:13:20.259Z,24.10
2017-07-01T19:15:51.878Z,19.63
2017-07-01T19:18:20.300Z,19.53
2017-07-01T19:20:51.848Z,29.10
2017-07-01T19:23:20.907Z,27.87
2017-07-01T19:25:52.132Z,32.20
2017-07-01T19:28:20.721Z,31.73
2017-07-01T19:30:48.099Z,26.60
2017-07-01T19:33:16.460Z,31.17
2017-07-01T19:35:44.678Z,33.53
2017-07-01T19:38:14.593Z,36.87
2017-07-01T19:40:42.466Z,31.53
2017-07-01T19:43:10.375Z,35.50
2017-07-01T19:45:37.155Z,39.17
2017-07-01T19:48:03.812Z,40.80
2017-07-01T19:50:30.448Z,34.30
2017-07-01T19:52:57.864Z,34.33
2017-07-01T19:55:25.174Z,32.23
2017-07-01T19:57:51.801Z,34.47
2017-07-01T20:00:23.833Z,34.03
2017-07-01T20:02:52.153Z,35.07
2017-07-01T20:05:21.289Z,32.53
2017-07-01T20:07:49.476Z,42.17
2017-07-01T20:10:19.124Z,37.40
2017-07-01T20:12:47.371Z,37.17
2017-07-01T20:15:16.042Z,40.77
2017-07-01T20:17:44.634Z,41.40
2017-07-01T20:20:13.318Z,43.27
2017-07-01T20:22:40.700Z,38.00
2017-07-01T20:25:09.572Z,40.73
2017-07-01T20:27:37.101Z,31.90
2017-07-01T20:30:05.489Z,34.77
2017-07-01T20:32:32.140Z,31.07
2017-07-01T20:34:58.773Z,21.33
2017-07-01T20:37:26.936Z,16.37
2017-07-01T20:39:58.711Z,23.63
2017-07-01T20:42:27.836Z,25.30
2017-07-01T20:44:58.691Z,20.90
2017-07-01T20:47:27.589Z,25.97
2017-07-01T20:49:55.754Z,20.37
2017-07-01T20:52:24.119Z,28.43
2017-07-01T20:54:52.914Z,32.07
2017-07-01T20:57:22.420Z,33.60
2017-07-01T20:59:50.472Z,23.47
2017-07-01T21:02:19.832Z,25.67
2017-07-01T21:04:48.849Z,18.87
2017-07-01T21:07:15.480Z,28.73
2017-07-01T21:09:44.382Z,26.83
2017-07-01T21:12:12.800Z,33.33
2017-07-01T21:14:40.979Z,32.37
2017-07-01T21:17:11.010Z,30.60
2017-07-01T21:19:38.001Z,30.20
2017-07-01T21:22:04.654Z,32.90
2017-07-01T21:24:34.027Z,33.87
2017-07-01T21:27:01.115Z,27.27
2017-07-01T21:29:29.037Z,29.97
2017-07-01T21:32:01.576Z,32.13
2017-07-01T21:34:32.194Z,39.43
2017-07-01T21:37:00.874Z,27.63
2017-07-01T21:39:32.496Z,26.23
2017-07-01T21:42:04.139Z,34.90
2017-07-01T21:44:32.887Z,26.23
2017-07-01T21:47:02.097Z,33.50
2017-07-01T21:49:30.898Z,25.83
2017-07-01T21:51:59.800Z,26.27
2017-07-01T21:54:28.025Z,32.63
2017-07-01T21:56:56.955Z,28.50
2017-07-01T21:59:24.976Z,32.73
2017-07-01T22:01:53.950Z,35.63
2017-07-01T22:04:20.602Z,28.57
2017-07-01T22:06:47.313Z,26.17
2017-07-01T22:09:13.950Z,28.07
2017-07-01T22:11:40.680Z,30.20
2017-07-01T22:14:08.471Z,26.67
2017-07-01T22:16:35.098Z,26.10
2017-07-01T22:19:01.737Z,32.97
2017-07-01T22:21:28.679Z,30.33
2017-07-01T22:23:55.332Z,28.53
2017-07-01T22:26:21.979Z,32.67
2017-07-01T22:28:49.333Z,35.67
2017-07-01T22:31:15.963Z,44.93
2017-07-01T22:33:42.578Z,40.63
2017-07-01T22:36:09.244Z,53.13
2017-07-01T22:38:36.751Z,41.07
2017-07-01T22:41:03.397Z,42.73
2017-07-01T22:43:30.042Z,42.17
2017-07-01T22:45:56.659Z,61.17
2017-07-01T22:48:24.110Z,46.47
2017-07-01T22:50:53.176Z,47.30
2017-07-01T22:53:19.842Z,47.00
2017-07-01T22:55:46.470Z,50.50
2017-07-01T22:58:13.085Z,47.90
2017-07-01T23:00:39.764Z,53.87
2017-07-01T23:03:06.406Z,47.80
2017-07-01T23:05:33.051Z,62.47
2017-07-01T23:07:59.690Z,58.83
2017-07-01T23:10:26.320Z,47.50
2017-07-01T23:12:52.973Z,48.90
2017-07-01T23:15:19.601Z,46.33
2017-07-01T23:17:46.251Z,48.07
2017-07-01T23:20:12.875Z,57.53
2017-07-01T23:22:39.521Z,69.37
2017-07-01T23:25:06.155Z,50.53
2017-07-01T23:27:32.805Z,50.03
2017-07-01T23:29:59.443Z,51.97
2017-07-01T23:32:26.959Z,47.80
2017-07-01T23:34:53.611Z,44.50
2017-07-01T23:37:20.263Z,55.73
2017-07-01T23:39:46.898Z,56.00
2017-07-01T23:42:13.544Z,49.40
2017-07-01T23:44:40.847Z,52.47
2017-07-01T23:47:07.732Z,41.90
2017-07-01T23:49:34.515Z,45.20
2017-07-01T23:52:04.235Z,50.47
2017-07-01T23:54:30.867Z,46.00
2017-07-01T23:56:58.131Z,46.63
2017-07-01T23:59:24.767Z,53.50
